createdAt,value
2023-05-16T00:02:08.960Z,86.15
2023-05-16T00:04:37.477Z,86.17
2023-05-16T00:07:06.809Z,86.61
2023-05-16T00:09:34.608Z,86.82
2023-05-16T00:12:02.514Z,86.52
2023-05-16T00:14:30.315Z,86.54
2023-05-16T00:16:59.287Z,85.87
2023-05-16T00:19:28.036Z,86.12
2023-05-16T00:21:55.796Z,86.21
2023-05-16T00:24:25.130Z,86.01
2023-05-16T00:26:52.894Z,85.98
2023-05-16T00:29:20.652Z,86.06
2023-05-16T00:31:48.453Z,86.06
2023-05-16T00:34:16.430Z,85.52
2023-05-16T00:36:44.545Z,85.73
2023-05-16T00:39:12.821Z,85.86
2023-05-16T00:41:42.149Z,85.51
2023-05-16T00:44:09.946Z,85.32
2023-05-16T00:46:37.820Z,85.51
2023-05-16T00:49:06.248Z,84.85
2023-05-16T00:51:34.196Z,85.01
2023-05-16T00:54:02.185Z,84.81
2023-05-16T00:56:30.168Z,85.22
2023-05-16T00:58:59.937Z,85.55
2023-05-16T01:01:29.728Z,85.70
2023-05-16T01:03:57.930Z,85.46
2023-05-16T01:06:25.955Z,85.16
2023-05-16T01:08:53.717Z,85.66
2023-05-16T01:11:28.323Z,85.27
2023-05-16T01:14:08.619Z,85.15
2023-05-16T01:16:41.611Z,85.65
2023-05-16T01:19:20.684Z,85.15
2023-05-16T01:21:51.372Z,85.31
2023-05-16T01:24:28.487Z,85.88
2023-05-16T01:26:59.644Z,86.03
2023-05-16T01:29:27.734Z,85.53
2023-05-16T01:31:55.621Z,85.32
2023-05-16T01:34:24.509Z,85.10
2023-05-16T01:37:00.627Z,85.51
2023-05-16T01:39:34.845Z,85.32
2023-05-16T01:42:07.226Z,85.08
2023-05-16T01:44:39.945Z,85.23
2023-05-16T01:47:13.034Z,85.81
2023-05-16T01:49:47.658Z,85.84
2023-05-16T01:52:20.613Z,86.47
2023-05-16T01:54:50.429Z,86.25
2023-05-16T01:57:21.534Z,86.25
2023-05-16T01:59:50.105Z,86.25
2023-05-16T02:02:19.542Z,86.29
2023-05-16T02:04:47.810Z,86.25
2023-05-16T02:07:16.175Z,86.87
2023-05-16T02:09:43.936Z,86.75
2023-05-16T02:12:11.723Z,86.62
2023-05-16T02:14:40.893Z,87.05
2023-05-16T02:17:09.089Z,87.30
2023-05-16T02:19:36.975Z,86.71
2023-05-16T02:22:04.838Z,86.95
2023-05-16T02:24:32.608Z,87.43
2023-05-16T02:27:00.434Z,87.03
2023-05-16T02:29:28.197Z,87.22
2023-05-16T02:31:57.364Z,87.12
2023-05-16T02:34:25.195Z,87.09
2023-05-16T02:36:52.940Z,87.20
2023-05-16T02:39:20.687Z,86.73
2023-05-16T02:41:48.494Z,86.71
2023-05-16T02:44:16.277Z,87.18
2023-05-16T02:46:44.294Z,87.21
2023-05-16T02:49:13.488Z,87.18
2023-05-16T02:51:41.277Z,87.10
2023-05-16T02:54:09.955Z,86.96
2023-05-16T02:56:37.981Z,87.17
2023-05-16T02:59:06.374Z,86.31
2023-05-16T03:01:34.819Z,86.69
2023-05-16T03:04:02.891Z,86.77
2023-05-16T03:06:33.139Z,87.29
2023-05-16T03:09:01.335Z,87.39
2023-05-16T03:11:29.170Z,87.51
2023-05-16T03:13:57.098Z,87.02
2023-05-16T03:16:24.899Z,87.18
2023-05-16T03:18:52.926Z,87.21
2023-05-16T03:21:20.685Z,87.48
2023-05-16T03:23:50.255Z,87.71
2023-05-16T03:26:18.097Z,88.47
2023-05-16T03:28:46.103Z,87.99
2023-05-16T03:31:13.912Z,88.54
2023-05-16T03:33:41.994Z,88.58
2023-05-16T03:36:10.617Z,88.29
2023-05-16T03:38:38.484Z,89.06
2023-05-16T03:41:07.681Z,88.62
2023-05-16T03:43:35.427Z,89.08
2023-05-16T03:46:03.232Z,89.26
2023-05-16T03:48:31.039Z,89.86
2023-05-16T03:50:58.799Z,89.12
2023-05-16T03:53:26.716Z,89.80
2023-05-16T03:55:54.535Z,89.61
2023-05-16T03:58:23.723Z,89.90
2023-05-16T04:00:51.646Z,89.28
2023-05-16T04:03:19.477Z,89.27
2023-05-16T04:05:47.405Z,89.83
2023-05-16T04:08:15.611Z,89.61
2023-05-16T04:10:43.349Z,89.85
2023-05-16T04:13:11.136Z,89.24
2023-05-16T04:15:40.553Z,89.01
2023-05-16T04:18:08.422Z,89.66
2023-05-16T04:20:36.740Z,89.31
2023-05-16T04:23:04.672Z,88.88
2023-05-16T04:25:32.750Z,89.36
2023-05-16T04:28:02.187Z,89.27
2023-05-16T04:30:29.957Z,89.38
2023-05-16T04:32:59.723Z,89.75
2023-05-16T04:35:28.350Z,89.86
2023-05-16T04:37:56.321Z,89.19
2023-05-16T04:40:25.192Z,89.74
2023-05-16T04:42:54.588Z,90.14
2023-05-16T04:45:22.497Z,90.47
2023-05-16T04:47:51.094Z,89.12
2023-05-16T04:50:20.618Z,89.96
2023-05-16T04:52:48.350Z,90.07
2023-05-16T04:55:16.527Z,90.17
2023-05-16T04:57:44.574Z,90.29
2023-05-16T05:00:13.720Z,89.81
2023-05-16T05:02:41.792Z,90.30
2023-05-16T05:05:10.608Z,90.62
2023-05-16T05:07:40.958Z,90.43
2023-05-16T05:10:09.673Z,91.02
2023-05-16T05:12:37.438Z,90.71
2023-05-16T05:15:06.519Z,90.75
2023-05-16T05:17:34.359Z,91.30
2023-05-16T05:20:03.293Z,90.99
2023-05-16T05:22:31.264Z,91.01
2023-05-16T05:25:00.386Z,90.68
2023-05-16T05:27:28.739Z,90.85
2023-05-16T05:29:56.490Z,90.59
2023-05-16T05:32:24.334Z,90.31
2023-05-16T05:34:52.636Z,90.10
2023-05-16T05:37:20.550Z,90.35
2023-05-16T05:39:48.542Z,90.41
2023-05-16T05:42:17.699Z,90.00
2023-05-16T05:44:45.750Z,90.25
2023-05-16T05:47:13.866Z,89.89
2023-05-16T05:49:42.003Z,89.90
2023-05-16T05:52:09.825Z,89.34
2023-05-16T05:54:37.695Z,88.66
2023-05-16T05:57:05.792Z,87.54
2023-05-16T05:59:35.190Z,84.95
2023-05-16T06:02:03.362Z,84.72
2023-05-16T06:04:31.173Z,84.59
2023-05-16T06:06:59.199Z,83.40
2023-05-16T06:09:27.107Z,82.05
2023-05-16T06:11:54.948Z,82.73
2023-05-16T06:14:22.913Z,81.09
2023-05-16T06:16:52.098Z,81.02
2023-05-16T06:19:20.045Z,81.25
2023-05-16T06:21:48.046Z,80.33
2023-05-16T06:24:16.127Z,81.09
2023-05-16T06:26:46.218Z,80.13
2023-05-16T06:29:14.004Z,79.33
2023-05-16T06:31:41.832Z,76.95
2023-05-16T06:34:11.280Z,76.64
2023-05-16T06:36:39.183Z,75.91
2023-05-16T06:39:07.567Z,76.74
2023-05-16T06:41:35.350Z,75.93
2023-05-16T06:44:03.219Z,76.26
2023-05-16T06:46:31.220Z,77.38
2023-05-16T06:48:59.129Z,75.69
2023-05-16T06:51:28.354Z,73.09
2023-05-16T06:53:56.325Z,73.43
2023-05-16T06:56:24.132Z,72.68
2023-05-16T06:58:51.983Z,72.33
2023-05-16T07:01:19.903Z,72.56
2023-05-16T07:03:48.001Z,73.62
2023-05-16T07:06:15.987Z,73.08
2023-05-16T07:08:45.229Z,70.57
2023-05-16T07:11:13.085Z,67.31
2023-05-16T07:13:40.997Z,66.81
2023-05-16T07:16:08.946Z,67.81
2023-05-16T07:18:36.905Z,67.33
2023-05-16T07:21:04.962Z,67.69
2023-05-16T07:23:32.965Z,67.65
2023-05-16T07:26:03.834Z,68.74
2023-05-16T07:28:31.681Z,69.48
2023-05-16T07:31:00.475Z,67.84
2023-05-16T07:33:28.575Z,67.12
2023-05-16T07:36:08.047Z,66.49
2023-05-16T07:38:43.890Z,66.45
2023-05-16T07:41:13.222Z,65.19
2023-05-16T07:43:41.313Z,66.26
2023-05-16T07:46:09.246Z,63.86
2023-05-16T07:48:37.159Z,64.76
2023-05-16T07:51:05.213Z,63.98
2023-05-16T07:53:33.220Z,62.23
2023-05-16T07:56:01.413Z,63.03
2023-05-16T07:58:30.892Z,62.15
2023-05-16T08:00:58.887Z,63.03
2023-05-16T08:03:27.048Z,62.89
2023-05-16T08:05:55.033Z,62.87
2023-05-16T08:08:22.940Z,62.54
2023-05-16T08:10:50.946Z,63.08
2023-05-16T08:13:18.960Z,62.69
2023-05-16T08:15:48.250Z,61.61
2023-05-16T08:18:18.788Z,62.73
2023-05-16T08:20:47.893Z,59.92
2023-05-16T08:23:15.906Z,60.66
2023-05-16T08:25:44.040Z,59.50
2023-05-16T08:28:11.937Z,59.62
2023-05-16T08:30:42.439Z,59.29
2023-05-16T08:33:12.309Z,58.97
2023-05-16T08:35:43.988Z,56.32
2023-05-16T08:38:12.098Z,58.07
2023-05-16T08:40:42.829Z,58.03
2023-05-16T08:43:10.758Z,56.87
2023-05-16T08:45:38.816Z,57.76
2023-05-16T08:48:10.390Z,57.78
2023-05-16T08:50:39.957Z,58.12
2023-05-16T08:53:09.642Z,54.61
2023-05-16T08:55:38.146Z,53.88
2023-05-16T08:58:06.060Z,54.68
2023-05-16T09:00:34.111Z,55.03
2023-05-16T09:03:02.519Z,55.67
2023-05-16T09:05:31.219Z,54.65
2023-05-16T09:08:00.854Z,55.29
2023-05-16T09:10:28.704Z,51.79
2023-05-16T09:12:56.724Z,51.72
2023-05-16T09:15:24.527Z,53.51
2023-05-16T09:17:52.732Z,52.74
2023-05-16T09:20:21.866Z,52.99
2023-05-16T09:22:56.334Z,54.57
2023-05-16T09:25:31.002Z,54.15
2023-05-16T09:28:01.697Z,54.34
2023-05-16T09:30:31.658Z,53.56
2023-05-16T09:33:00.413Z,53.85
2023-05-16T09:35:42.952Z,53.77
2023-05-16T09:38:15.179Z,52.36
2023-05-16T09:40:44.540Z,51.52
2023-05-16T09:43:16.790Z,52.95
2023-05-16T09:45:47.836Z,53.84
2023-05-16T09:48:17.049Z,53.11
2023-05-16T09:50:49.870Z,51.26
2023-05-16T09:53:17.797Z,48.93
2023-05-16T09:55:47.051Z,49.66
2023-05-16T09:58:18.816Z,49.37
2023-05-16T10:00:47.116Z,49.65
2023-05-16T10:03:16.702Z,48.27
2023-05-16T10:05:44.829Z,50.03
2023-05-16T10:08:13.592Z,50.59
2023-05-16T10:10:44.106Z,51.62
2023-05-16T10:13:14.372Z,51.25
2023-05-16T10:15:46.672Z,50.99
2023-05-16T10:18:15.784Z,50.09
2023-05-16T10:20:46.589Z,49.60
2023-05-16T10:23:18.956Z,49.32
2023-05-16T10:25:48.000Z,48.20
2023-05-16T10:28:17.945Z,48.79
2023-05-16T10:30:47.676Z,49.30
2023-05-16T10:33:20.294Z,47.22
2023-05-16T10:35:48.816Z,47.73
2023-05-16T10:38:19.648Z,48.00
2023-05-16T10:40:49.276Z,45.75
2023-05-16T10:43:26.914Z,46.68
2023-05-16T10:45:58.873Z,45.54
2023-05-16T10:48:31.533Z,45.44
2023-05-16T10:50:59.518Z,44.91
2023-05-16T10:53:31.936Z,45.70
2023-05-16T10:56:08.984Z,44.76
2023-05-16T10:58:48.813Z,44.20
2023-05-16T11:01:24.530Z,45.34
2023-05-16T11:04:06.915Z,43.62
2023-05-16T11:06:36.150Z,43.84
2023-05-16T11:09:10.140Z,44.58
2023-05-16T11:11:49.057Z,44.30
2023-05-16T11:14:23.661Z,45.00
2023-05-16T11:16:52.916Z,44.90
2023-05-16T11:19:32.153Z,45.11
2023-05-16T11:22:07.412Z,43.96
2023-05-16T11:24:36.350Z,44.78
2023-05-16T11:27:07.944Z,45.32
2023-05-16T11:29:37.751Z,45.56
2023-05-16T11:32:06.850Z,44.97
2023-05-16T11:34:39.658Z,43.86
2023-05-16T11:37:07.803Z,44.60
2023-05-16T11:39:37.815Z,44.76
2023-05-16T11:42:06.020Z,44.64
2023-05-16T11:44:33.938Z,45.52
2023-05-16T11:47:03.981Z,44.53
2023-05-16T11:49:32.343Z,42.52
2023-05-16T11:52:00.363Z,43.22
2023-05-16T11:54:28.472Z,42.03
2023-05-16T11:56:56.754Z,42.15
2023-05-16T11:59:25.502Z,42.09
2023-05-16T12:01:54.140Z,42.70
2023-05-16T12:04:24.299Z,45.17
2023-05-16T12:07:04.254Z,44.23
2023-05-16T12:09:32.176Z,46.32
2023-05-16T12:12:00.640Z,45.09
2023-05-16T12:14:28.655Z,44.78
2023-05-16T12:16:56.777Z,43.59
2023-05-16T12:19:26.481Z,43.59
2023-05-16T12:21:55.428Z,44.06
2023-05-16T12:24:23.379Z,44.90
2023-05-16T12:26:54.817Z,42.97
2023-05-16T12:29:25.186Z,43.86
2023-05-16T12:31:55.070Z,43.57
2023-05-16T12:34:23.400Z,43.08
2023-05-16T12:37:02.059Z,44.03
2023-05-16T12:39:38.490Z,42.91
2023-05-16T12:42:07.437Z,44.99
2023-05-16T12:44:38.235Z,44.35
2023-05-16T12:47:13.507Z,41.70
2023-05-16T12:49:46.329Z,42.71
2023-05-16T12:52:20.701Z,41.34
2023-05-16T12:54:49.396Z,41.62
2023-05-16T12:57:17.207Z,42.29
2023-05-16T12:59:45.121Z,45.46
2023-05-16T13:02:13.088Z,43.57
2023-05-16T13:04:41.727Z,42.95
2023-05-16T13:07:09.591Z,42.54
2023-05-16T13:09:38.834Z,44.36
2023-05-16T13:12:07.568Z,42.52
2023-05-16T13:14:35.444Z,42.86
2023-05-16T13:17:04.611Z,41.55
2023-05-16T13:19:32.684Z,42.46
2023-05-16T13:22:00.632Z,41.52
2023-05-16T13:24:28.725Z,41.24
2023-05-16T13:26:59.603Z,43.40
2023-05-16T13:29:27.657Z,40.54
2023-05-16T13:31:55.838Z,40.62
2023-05-16T13:34:23.857Z,40.79
2023-05-16T13:36:54.373Z,39.72
2023-05-16T13:39:23.325Z,39.96
2023-05-16T13:41:51.578Z,39.23
2023-05-16T13:44:22.533Z,38.00
2023-05-16T13:46:50.746Z,38.82
2023-05-16T13:49:18.792Z,39.27
2023-05-16T13:51:47.501Z,39.16
2023-05-16T13:54:15.330Z,38.24
2023-05-16T13:56:43.350Z,39.94
2023-05-16T13:59:14.234Z,38.25
2023-05-16T14:01:47.755Z,39.20
2023-05-16T14:04:15.970Z,39.06
2023-05-16T14:06:43.883Z,39.37
2023-05-16T14:09:13.232Z,41.44
2023-05-16T14:11:41.131Z,42.39
2023-05-16T14:14:08.975Z,40.98
2023-05-16T14:16:37.371Z,41.88
2023-05-16T14:19:06.707Z,40.37
2023-05-16T14:21:34.682Z,39.78
2023-05-16T14:24:02.655Z,42.48
2023-05-16T14:26:32.258Z,41.65
2023-05-16T14:29:00.918Z,42.78
2023-05-16T14:31:28.908Z,42.50
2023-05-16T14:33:57.124Z,41.67
2023-05-16T14:36:26.443Z,42.11
2023-05-16T14:38:54.250Z,40.08
2023-05-16T14:41:22.856Z,42.26
2023-05-16T14:43:51.040Z,40.56
2023-05-16T14:46:18.970Z,39.76
2023-05-16T14:48:47.011Z,41.67
2023-05-16T14:51:15.209Z,41.66
2023-05-16T14:53:46.936Z,42.06
2023-05-16T14:56:15.016Z,41.70
2023-05-16T14:58:43.073Z,43.06
2023-05-16T15:01:11.137Z,42.47
2023-05-16T15:06:10.543Z,40.27
2023-05-16T15:08:38.832Z,41.44
2023-05-16T15:11:08.107Z,43.16
2023-05-16T15:13:35.938Z,44.45
2023-05-16T15:16:04.247Z,42.36
2023-05-16T15:18:32.125Z,43.40
2023-05-16T15:21:00.127Z,41.64
2023-05-16T15:23:28.350Z,43.21
2023-05-16T15:25:56.263Z,44.80
2023-05-16T15:28:25.449Z,43.51
2023-05-16T15:30:53.473Z,42.52
2023-05-16T15:33:21.304Z,42.48
2023-05-16T15:35:49.312Z,44.48
2023-05-16T15:38:17.346Z,43.74
2023-05-16T15:40:45.151Z,44.11
2023-05-16T15:43:12.940Z,44.30
2023-05-16T15:45:44.947Z,46.87
2023-05-16T15:48:13.086Z,46.37
2023-05-16T15:50:41.930Z,47.84
2023-05-16T15:53:09.841Z,47.50
2023-05-16T15:55:38.108Z,49.37
2023-05-16T15:58:06.224Z,50.59
2023-05-16T16:00:34.143Z,49.21
2023-05-16T16:03:03.423Z,50.95
2023-05-16T16:05:31.269Z,50.82
2023-05-16T16:07:59.104Z,51.22
2023-05-16T16:10:27.281Z,51.23
2023-05-16T16:13:01.718Z,52.62
2023-05-16T16:15:32.820Z,53.77
2023-05-16T16:18:03.028Z,54.09
2023-05-16T16:20:31.010Z,54.14
2023-05-16T16:22:59.079Z,55.44
2023-05-16T16:25:27.313Z,55.06
2023-05-16T16:27:56.058Z,55.88
2023-05-16T16:30:23.961Z,56.15
2023-05-16T16:32:52.076Z,56.19
2023-05-16T16:35:22.512Z,56.48
2023-05-16T16:38:02.475Z,56.93
2023-05-16T16:40:34.439Z,56.16
2023-05-16T16:43:02.585Z,57.49
2023-05-16T16:45:30.808Z,57.13
2023-05-16T16:47:59.045Z,57.76
2023-05-16T16:50:28.248Z,57.47
2023-05-16T16:52:56.185Z,56.47
2023-05-16T16:55:24.002Z,56.85
2023-05-16T16:57:51.882Z,56.96
2023-05-16T17:00:20.806Z,57.25
2023-05-16T17:02:48.747Z,59.14
2023-05-16T17:05:16.664Z,58.56
2023-05-16T17:07:45.924Z,59.50
2023-05-16T17:10:13.812Z,57.94
2023-05-16T17:12:48.924Z,57.89
2023-05-16T17:15:17.418Z,59.12
2023-05-16T17:17:45.628Z,58.88
2023-05-16T17:20:14.440Z,58.19
2023-05-16T17:22:42.242Z,57.96
2023-05-16T17:25:11.818Z,58.73
2023-05-16T17:27:40.686Z,58.92
2023-05-16T17:30:10.536Z,58.78
2023-05-16T17:32:40.015Z,58.58
2023-05-16T17:35:08.347Z,58.48
2023-05-16T17:37:36.206Z,58.49
2023-05-16T17:40:05.869Z,59.26
2023-05-16T17:42:35.172Z,59.81
2023-05-16T17:45:04.962Z,59.82
2023-05-16T17:47:33.143Z,59.70
2023-05-16T17:50:01.216Z,59.79
2023-05-16T17:52:29.406Z,59.49
2023-05-16T17:54:57.299Z,59.09
2023-05-16T17:57:25.346Z,59.73
2023-05-16T17:59:54.735Z,59.95
2023-05-16T18:02:22.638Z,60.48
2023-05-16T18:04:50.483Z,60.82
2023-05-16T18:07:18.432Z,60.66
2023-05-16T18:09:46.389Z,61.33
2023-05-16T18:12:14.989Z,61.92
2023-05-16T18:14:45.260Z,62.12
2023-05-16T18:17:14.811Z,62.03
2023-05-16T18:19:42.906Z,62.50
2023-05-16T18:22:12.437Z,62.16
2023-05-16T18:24:40.752Z,62.07
2023-05-16T18:27:08.546Z,61.86
2023-05-16T18:29:36.311Z,62.33
2023-05-16T18:32:04.336Z,62.40
2023-05-16T18:34:34.085Z,62.99
2023-05-16T18:37:02.017Z,62.86
2023-05-16T18:39:29.969Z,62.56
2023-05-16T18:41:57.974Z,62.75
2023-05-16T18:44:25.766Z,63.31
2023-05-16T18:46:53.613Z,64.12
2023-05-16T18:49:21.697Z,65.05
2023-05-16T18:51:51.261Z,65.26
2023-05-16T18:54:20.607Z,65.78
2023-05-16T18:56:49.472Z,66.14
2023-05-16T18:59:18.784Z,66.16
2023-05-16T19:01:47.206Z,66.11
2023-05-16T19:04:15.225Z,66.33
2023-05-16T19:06:43.165Z,66.96
2023-05-16T19:09:12.371Z,66.24
2023-05-16T19:11:40.310Z,66.65
2023-05-16T19:14:08.721Z,66.40
2023-05-16T19:16:36.524Z,66.84
2023-05-16T19:19:05.298Z,66.89
2023-05-16T19:21:33.236Z,66.66
2023-05-16T19:24:01.239Z,67.33
2023-05-16T19:26:31.014Z,67.11
2023-05-16T19:28:59.142Z,67.57
2023-05-16T19:31:26.999Z,67.93
2023-05-16T19:33:54.979Z,67.94
2023-05-16T19:36:22.941Z,68.30
2023-05-16T19:38:50.771Z,68.73
2023-05-16T19:41:18.633Z,69.06
2023-05-16T19:43:47.843Z,68.93
2023-05-16T19:46:15.642Z,69.21
2023-05-16T19:48:43.452Z,69.13
2023-05-16T19:51:11.414Z,68.98
2023-05-16T19:53:39.209Z,69.19
2023-05-16T19:56:07.081Z,69.07
2023-05-16T19:58:34.941Z,69.24
2023-05-16T20:01:04.350Z,69.24
2023-05-16T20:03:32.575Z,70.06
2023-05-16T20:06:00.476Z,70.40
2023-05-16T20:08:28.457Z,70.99
2023-05-16T20:10:57.324Z,70.54
2023-05-16T20:13:26.275Z,71.42
2023-05-16T20:15:54.103Z,71.19
2023-05-16T20:18:23.679Z,71.43
2023-05-16T20:20:51.513Z,71.55
2023-05-16T20:23:19.578Z,72.09
2023-05-16T20:25:47.442Z,72.50
2023-05-16T20:28:15.325Z,72.81
2023-05-16T20:30:43.262Z,72.57
2023-05-16T20:33:11.225Z,72.76
2023-05-16T20:35:40.528Z,72.85
2023-05-16T20:38:08.748Z,73.01
2023-05-16T20:40:36.915Z,73.95
2023-05-16T20:43:04.826Z,73.59
2023-05-16T20:45:32.618Z,73.63
2023-05-16T20:48:00.705Z,73.67
2023-05-16T20:50:28.704Z,74.13
2023-05-16T20:52:58.060Z,73.73
2023-05-16T20:55:26.438Z,73.74
2023-05-16T20:57:54.447Z,74.25
2023-05-16T21:00:22.456Z,74.59
2023-05-16T21:02:50.320Z,74.81
2023-05-16T21:05:25.188Z,75.25
2023-05-16T21:07:53.595Z,75.57
2023-05-16T21:10:22.793Z,76.05
2023-05-16T21:12:50.828Z,76.65
2023-05-16T21:15:19.883Z,77.45
2023-05-16T21:17:49.691Z,77.23
2023-05-16T21:20:17.745Z,77.96
2023-05-16T21:22:45.657Z,77.95
2023-05-16T21:25:13.438Z,78.24
2023-05-16T21:27:44.321Z,78.18
2023-05-16T21:30:13.311Z,78.62
2023-05-16T21:32:41.250Z,78.23
2023-05-16T21:35:09.770Z,79.20
2023-05-16T21:37:37.641Z,79.64
2023-05-16T21:40:06.454Z,79.64
2023-05-16T21:42:34.366Z,79.76
2023-05-16T21:45:03.562Z,80.72
2023-05-16T21:47:34.435Z,80.25
2023-05-16T21:50:02.193Z,79.89
2023-05-16T21:52:30.120Z,80.27
2023-05-16T21:54:57.953Z,80.60
2023-05-16T21:57:25.814Z,80.49
2023-05-16T21:59:53.667Z,80.24
2023-05-16T22:02:23.501Z,80.71
2023-05-16T22:04:52.341Z,80.68
2023-05-16T22:07:20.518Z,81.25
2023-05-16T22:09:50.826Z,81.56
2023-05-16T22:12:21.662Z,81.44
2023-05-16T22:14:50.100Z,81.54
2023-05-16T22:17:19.276Z,81.24
2023-05-16T22:19:48.800Z,82.05
2023-05-16T22:22:16.966Z,82.09
2023-05-16T22:24:44.753Z,83.16
2023-05-16T22:27:12.574Z,83.18
2023-05-16T22:29:40.666Z,83.88
2023-05-16T22:32:09.295Z,84.72
2023-05-16T22:34:39.626Z,85.32
2023-05-16T22:37:09.588Z,85.30
2023-05-16T22:39:38.041Z,84.94
2023-05-16T22:42:06.551Z,85.50
2023-05-16T22:44:34.290Z,85.33
2023-05-16T22:47:02.068Z,85.44
2023-05-16T22:49:29.831Z,86.39
2023-05-16T22:51:57.604Z,85.96
2023-05-16T22:54:26.840Z,86.50
2023-05-16T22:56:54.762Z,86.40
2023-05-16T22:59:22.597Z,86.21
2023-05-16T23:01:50.476Z,86.74
2023-05-16T23:04:18.242Z,86.59
2023-05-16T23:06:46.097Z,86.86
2023-05-16T23:09:13.995Z,87.09
2023-05-16T23:11:43.224Z,87.36
2023-05-16T23:14:11.162Z,88.20
2023-05-16T23:16:38.966Z,87.71
2023-05-16T23:19:09.335Z,87.86
2023-05-16T23:21:37.586Z,88.62
2023-05-16T23:24:05.568Z,88.16
2023-05-16T23:26:33.341Z,88.29
2023-05-16T23:29:02.582Z,88.16
2023-05-16T23:31:30.671Z,88.35
2023-05-16T23:33:58.476Z,88.04
2023-05-16T23:36:26.351Z,88.77
2023-05-16T23:38:54.221Z,88.79
2023-05-16T23:41:22.117Z,89.05
2023-05-16T23:43:49.956Z,88.76
2023-05-16T23:46:19.139Z,88.64
2023-05-16T23:48:47.025Z,88.76
2023-05-16T23:51:14.822Z,88.60
2023-05-16T23:53:42.780Z,89.55
2023-05-16T23:56:10.654Z,89.58
2023-05-16T23:58:38.441Z,90.59
